X  Fermer Données météorologiques d'aviation de Metar        LFLY LYON Saint Exupéry
Température
13°C Température
4°C Point de rosée
54% Humidité



Vent
17 KM/H
10 MPH
4 M/S
9 KTS



170°
S
Conditions actuelles

Mostly Clear Généralement dégagé
Pression 998 (hPa) - 29.47 (inHg)
Visibilité 6 (mile) - 10 (km)
Aéroport
Code de l'aéroport LFLY

Emplacement: LYON Saint Exupéry
Distance: 70 (km)

Metar:
METAR LFLY 022000Z AUTO 17009KT CAVOK 13/04 Q0998 TEMPO 18020G30KT

Temps: 02-03-2024 21:00 CET